Taylor, NE

4:07 AM CST on February 11, 2016 (GMT -0600)
Sharp | | Change Station
CLOSE
Current Station
Airport
Location: Ord,
Elevation: 2070 ft
Nearby Weather Stations

Elev 2070 ft 41.62 °N, 98.95 °W | Updated 14 minutes ago

Overcast
Overcast
29 °F
Feels Like 25 °F
N
4
Wind Variable Wind from NE

Today
High -- | Low -- °F
--% Chance of Precip.
Yesterday
High -- | Low -- °F
Precip. -- in
Pressure 30.22 in
Visibility 10.0 miles
Clouds Overcast 1100 ft
Windchill 25 °F
Dew Point 25 °F
Humidity 85%
Rainfall 0.00 in
Snow Depth Not available.
7:39 AM 6:05 PM
Waxing Crescent, 11% visible
METAR KODX 110953Z AUTO 05003KT 10SM OVC011 M02/M04 A3018 RMK AO2 SLP232 T10171039
Pressure 30.22 in
Visibility 10.0 miles
Clouds Overcast 1100 ft
Windchill 25 °F
Dew Point 25 °F
Humidity 85%
Rainfall 0.00 in
Snow Depth Not available.
7:39 AM 6:05 PM
Waxing Crescent, 11% visible
METAR KODX 110953Z AUTO 05003KT 10SM OVC011 M02/M04 A3018 RMK AO2 SLP232 T10171039

10-Day Weather Forecast

Almanac

Astronomy

Feb. 11, 2016 Rise Set
Actual Time
Civil Twilight
Nautical Twilight
Astronomical Twilight
Moon
Length of Visible Light
Length of Day
Tomorrow will be .
, % of the Moon is Illuminated

Today's Extremes

State Highs State Lows

Community

WunderPhotos

Upload Photos

1,892,030 photos uploaded!

WunderBlog® & News

Nearby

Air Quality

  Air Quality AQ Index Pollutant
Not available.

Snow Depth

Station Depth Elevation

Earthquake Activity

City Distance Mag. Time & Date
Minimum magnitude displayed is 2.5.

Coastal Water Temperatures

Place Temperature

Stations

Nearby Weather Stations

Station Location Temp. Windchill Dew Point Humidity Wind Precip. Elev Updated Type
                   

Watches & Warnings

There are currently no watches in effect.